createdAt,value
2022-09-16T00:00:44.457Z,100121.53
2022-09-16T00:03:49.577Z,100125.94
2022-09-16T00:06:52.128Z,100116.84
2022-09-16T00:09:54.885Z,100112.50
2022-09-16T00:12:57.762Z,100112.50
2022-09-16T00:16:00.416Z,100116.63
2022-09-16T00:19:04.913Z,100111.22
2022-09-16T00:22:07.532Z,100110.63
2022-09-16T00:25:10.905Z,100112.50
2022-09-16T00:28:13.604Z,100110.63
2022-09-16T00:31:16.713Z,100114.78
2022-09-16T00:34:21.130Z,100115.94
2022-09-16T00:37:23.715Z,100131.31
2022-09-16T00:40:26.460Z,100128.31
2022-09-16T00:43:29.117Z,100133.56
2022-09-16T00:46:37.126Z,100126.41
2022-09-16T00:49:41.803Z,100129.75
2022-09-16T00:52:45.061Z,100138.81
2022-09-16T00:55:47.964Z,100125.03
2022-09-16T00:58:56.371Z,100132.75
2022-09-16T01:02:01.772Z,100128.94
2022-09-16T01:05:09.124Z,100135.53
2022-09-16T01:08:12.293Z,100121.31
2022-09-16T01:11:14.877Z,100128.75
2022-09-16T01:14:36.194Z,100125.16
2022-09-16T01:17:51.408Z,100121.38
2022-09-16T01:21:14.508Z,100123.25
2022-09-16T01:24:39.814Z,100124.63
2022-09-16T01:27:59.900Z,100130.66
2022-09-16T01:31:12.903Z,100132.03
2022-09-16T01:34:25.853Z,100132.31
2022-09-16T01:37:35.795Z,100127.13
2022-09-16T01:40:47.658Z,100136.75
2022-09-16T01:43:58.142Z,100136.75
2022-09-16T01:47:09.789Z,100132.63
2022-09-16T01:50:21.412Z,100136.19
2022-09-16T01:53:31.906Z,100128.25
2022-09-16T01:56:42.171Z,100131.53
2022-09-16T01:59:49.871Z,100133.19
2022-09-16T02:03:00.191Z,100128.00
2022-09-16T02:06:06.403Z,100129.09
2022-09-16T02:09:14.502Z,100132.66
2022-09-16T02:12:22.479Z,100130.44
2022-09-16T02:15:27.601Z,100132.13
2022-09-16T02:18:36.208Z,100119.75
2022-09-16T02:21:45.437Z,100129.06
2022-09-16T02:24:49.359Z,100127.16
2022-09-16T02:27:54.408Z,100126.88
2022-09-16T02:31:01.195Z,100126.09
2022-09-16T02:34:10.713Z,100123.59
2022-09-16T02:37:19.435Z,100131.31
2022-09-16T02:40:28.122Z,100121.94
2022-09-16T02:43:31.298Z,100118.69
2022-09-16T02:46:40.957Z,100115.91
2022-09-16T02:49:54.992Z,100118.09
2022-09-16T02:53:03.403Z,100121.13
2022-09-16T02:56:13.112Z,100119.22
2022-09-16T02:59:17.471Z,100122.78
2022-09-16T03:02:20.121Z,100116.72
2022-09-16T03:05:29.614Z,100126.06
2022-09-16T03:08:32.703Z,100118.13
2022-09-16T03:12:05.032Z,100113.16
2022-09-16T03:15:33.582Z,100112.31
2022-09-16T03:18:52.340Z,100114.81
2022-09-16T03:22:03.693Z,100117.56
2022-09-16T03:25:15.499Z,100108.78
2022-09-16T03:28:24.103Z,100110.44
2022-09-16T03:31:31.501Z,100114.00
2022-09-16T03:34:39.839Z,100105.47
2022-09-16T03:37:45.833Z,100109.88
2022-09-16T03:40:49.452Z,100109.59
2022-09-16T03:43:58.167Z,100116.47
2022-09-16T03:47:04.936Z,100115.38
2022-09-16T03:50:08.596Z,100113.44
2022-09-16T03:53:12.973Z,100110.69
2022-09-16T03:56:15.506Z,100106.84
2022-09-16T03:59:18.261Z,100106.84
2022-09-16T04:02:20.874Z,100107.13
2022-09-16T04:05:23.909Z,100102.75
2022-09-16T04:08:27.793Z,100104.09
2022-09-16T04:11:32.231Z,100107.97
2022-09-16T04:14:35.381Z,100108.22
2022-09-16T04:17:38.022Z,100117.31
2022-09-16T04:20:40.749Z,100111.81
2022-09-16T04:23:45.338Z,100105.47
2022-09-16T04:26:47.934Z,100107.41
2022-09-16T04:29:50.662Z,100104.94
2022-09-16T04:32:54.501Z,100097.81
2022-09-16T04:36:03.204Z,100103.31
2022-09-16T04:39:08.055Z,100096.16
2022-09-16T04:42:12.352Z,100103.56
2022-09-16T04:45:15.171Z,100106.59
2022-09-16T04:48:19.138Z,100098.66
2022-09-16T04:51:22.956Z,100095.06
2022-09-16T04:54:26.979Z,100100.28
2022-09-16T04:57:32.308Z,100102.22
2022-09-16T05:00:35.242Z,100103.03
2022-09-16T05:03:37.820Z,100105.78
2022-09-16T05:06:41.946Z,100103.84
2022-09-16T05:09:46.174Z,100099.19
2022-09-16T05:12:52.216Z,100103.03
2022-09-16T05:15:54.828Z,100109.63
2022-09-16T05:18:59.894Z,100099.16
2022-09-16T05:22:06.929Z,100101.09
2022-09-16T05:25:11.282Z,100094.78
2022-09-16T05:28:13.849Z,100101.38
2022-09-16T05:31:18.726Z,100100.81
2022-09-16T05:34:25.012Z,100098.06
2022-09-16T05:37:27.636Z,100095.84
2022-09-16T05:40:31.775Z,100088.19
2022-09-16T05:43:35.956Z,100090.63
2022-09-16T05:46:40.677Z,100091.19
2022-09-16T05:49:43.316Z,100087.63
2022-09-16T05:52:45.882Z,100095.84
2022-09-16T05:55:57.900Z,100088.94
2022-09-16T05:59:01.745Z,100090.88
2022-09-16T06:02:04.406Z,100094.16
2022-09-16T06:05:08.229Z,100089.97
2022-09-16T06:08:10.880Z,100091.22
2022-09-16T06:11:14.931Z,100084.75
2022-09-16T06:14:18.605Z,100087.28
2022-09-16T06:17:21.357Z,100097.16
2022-09-16T06:20:24.203Z,100094.78
2022-09-16T06:23:27.168Z,100077.44
2022-09-16T06:26:31.656Z,100085.75
2022-09-16T06:29:34.235Z,100085.22
2022-09-16T06:32:37.543Z,100090.25
2022-09-16T06:35:40.262Z,100090.41
2022-09-16T06:38:43.175Z,100087.84
2022-09-16T06:41:47.347Z,100078.47
2022-09-16T06:44:49.899Z,100088.81
2022-09-16T06:47:52.600Z,100081.69
2022-09-16T06:51:02.436Z,100079.28
2022-09-16T06:54:06.483Z,100082.31
2022-09-16T06:57:12.324Z,100077.38
2022-09-16T07:00:15.682Z,100087.28
2022-09-16T07:03:18.654Z,100089.97
2022-09-16T07:06:29.617Z,100090.84
2022-09-16T07:09:41.271Z,100090.06
2022-09-16T07:12:45.186Z,100083.47
2022-09-16T07:16:11.800Z,100083.09
2022-09-16T07:19:10.855Z,100091.97
2022-09-16T07:22:13.598Z,100086.03
2022-09-16T07:25:16.492Z,100084.09
2022-09-16T07:28:20.947Z,100092.06
2022-09-16T07:31:26.044Z,100087.84
2022-09-16T07:34:28.676Z,100083.09
2022-09-16T07:37:31.274Z,100086.72
2022-09-16T07:40:35.192Z,100081.75
2022-09-16T07:43:40.384Z,100086.16
2022-09-16T07:46:43.295Z,100086.94
2022-09-16T07:49:45.988Z,100084.78
2022-09-16T07:52:48.551Z,100096.34
2022-09-16T07:55:51.321Z,100089.16
2022-09-16T07:58:55.798Z,100100.22
2022-09-16T08:01:58.572Z,100098.88
2022-09-16T08:05:01.243Z,100100.97
2022-09-16T08:08:04.266Z,100100.16
2022-09-16T08:11:09.074Z,100106.78
2022-09-16T08:14:14.373Z,100115.09
2022-09-16T08:17:17.161Z,100095.16
2022-09-16T08:20:20.293Z,100101.94
2022-09-16T08:23:23.185Z,100098.78
2022-09-16T08:26:26.749Z,100097.34
2022-09-16T08:29:30.651Z,100096.44
2022-09-16T08:32:34.085Z,100103.78
2022-09-16T08:35:36.933Z,100099.81
2022-09-16T08:38:39.616Z,100110.72
2022-09-16T08:42:06.059Z,100108.16
2022-09-16T08:45:21.174Z,100103.00
2022-09-16T08:48:35.945Z,100104.25
2022-09-16T08:51:38.896Z,100098.31
2022-09-16T08:54:45.163Z,100097.00
2022-09-16T08:57:56.984Z,100101.72
2022-09-16T09:01:11.784Z,100100.69
2022-09-16T09:04:15.086Z,100088.00
2022-09-16T09:07:25.416Z,100106.25
2022-09-16T09:10:38.824Z,100089.44
2022-09-16T09:13:54.896Z,100092.53
2022-09-16T09:17:08.135Z,100097.31
2022-09-16T09:20:23.458Z,100088.41
2022-09-16T09:23:51.768Z,100082.91
2022-09-16T09:27:00.883Z,100079.06
2022-09-16T09:30:11.415Z,100094.13
2022-09-16T09:33:47.208Z,100084.28
2022-09-16T09:37:02.045Z,100085.53
2022-09-16T09:40:12.882Z,100076.03
2022-09-16T09:43:20.306Z,100081.09
2022-09-16T09:46:30.993Z,100079.22
2022-09-16T09:49:42.135Z,100069.00
2022-09-16T09:52:49.322Z,100075.38
2022-09-16T09:55:59.432Z,100075.94
2022-09-16T09:59:12.909Z,100075.91
2022-09-16T10:02:18.462Z,100063.38
2022-09-16T10:05:25.841Z,100069.56
2022-09-16T10:08:32.371Z,100063.50
2022-09-16T10:11:35.023Z,100066.03
2022-09-16T10:14:39.236Z,100056.97
2022-09-16T10:17:50.451Z,100037.41
2022-09-16T10:21:03.326Z,100053.34
2022-09-16T10:24:06.124Z,100037.13
2022-09-16T10:27:21.681Z,100062.44
2022-09-16T10:30:24.359Z,100048.31
2022-09-16T10:33:30.824Z,100044.19
2022-09-16T10:36:36.554Z,100049.25
2022-09-16T10:39:41.784Z,100061.59
2022-09-16T10:42:48.467Z,100051.47
2022-09-16T10:45:54.184Z,100040.47
2022-09-16T10:49:01.672Z,100057.38
2022-09-16T10:52:17.445Z,100035.38
2022-09-16T10:55:29.456Z,100045.44
2022-09-16T10:58:32.610Z,100053.13
2022-09-16T11:01:46.226Z,100052.97
2022-09-16T11:05:01.297Z,100049.00
2022-09-16T11:08:13.916Z,100046.66
2022-09-16T11:11:28.359Z,100042.69
2022-09-16T11:14:43.251Z,100036.06
2022-09-16T11:18:01.939Z,100048.66
2022-09-16T11:21:28.574Z,100036.53
2022-09-16T11:24:52.086Z,100037.34
2022-09-16T11:28:05.795Z,100029.53
2022-09-16T11:31:19.206Z,100027.47
2022-09-16T11:34:32.928Z,100030.25
2022-09-16T11:37:44.075Z,100033.28
2022-09-16T11:40:54.975Z,100028.94
2022-09-16T11:44:27.411Z,100014.59
2022-09-16T11:47:46.966Z,100015.28
2022-09-16T11:50:57.022Z,100008.69
2022-09-16T11:57:39.114Z,99999.22
2022-09-16T12:00:42.737Z,100000.31
2022-09-16T12:03:50.708Z,99997.03
2022-09-16T12:07:01.097Z,99995.75
2022-09-16T12:10:13.599Z,99984.84
2022-09-16T12:13:22.192Z,99980.78
2022-09-16T12:16:33.005Z,99984.53
2022-09-16T12:19:40.126Z,99978.47
2022-09-16T12:22:46.986Z,99973.66
2022-09-16T12:26:05.620Z,99969.91
2022-09-16T12:29:16.024Z,99981.66
2022-09-16T12:32:23.919Z,99978.78
2022-09-16T12:38:40.468Z,99960.13
2022-09-16T12:41:59.875Z,99962.09
2022-09-16T12:45:21.951Z,99966.13
2022-09-16T12:49:10.579Z,99956.38
2022-09-16T12:52:35.416Z,99952.31
2022-09-16T12:55:53.744Z,99951.09
2022-09-16T12:59:14.287Z,99947.31
2022-09-16T13:02:21.148Z,99940.47
2022-09-16T13:05:30.963Z,99946.88
2022-09-16T13:08:36.701Z,99953.34
2022-09-16T13:15:07.118Z,99942.09
2022-09-16T13:18:23.835Z,99948.28
2022-09-16T13:21:32.276Z,99937.41
2022-09-16T13:24:40.067Z,99927.25
2022-09-16T13:27:57.276Z,99923.13
2022-09-16T13:31:20.409Z,99926.19
2022-09-16T13:34:25.121Z,99927.13
2022-09-16T13:37:27.852Z,99918.41
2022-09-16T13:40:32.202Z,99917.84
2022-09-16T13:43:37.685Z,99907.34
2022-09-16T13:46:40.518Z,99917.28
2022-09-16T13:49:49.634Z,99924.44
2022-09-16T13:52:53.156Z,99906.88
2022-09-16T13:56:02.048Z,99912.75
2022-09-16T13:59:20.865Z,99918.25
2022-09-16T14:02:34.173Z,99923.41
2022-09-16T14:05:56.474Z,99923.75
2022-09-16T14:09:03.530Z,99916.75
2022-09-16T14:12:17.094Z,99911.56
2022-09-16T14:15:21.487Z,99914.19
2022-09-16T14:18:27.450Z,99920.22
2022-09-16T14:21:31.728Z,99908.69
2022-09-16T14:24:36.751Z,99914.56
2022-09-16T14:27:39.742Z,99912.78
2022-09-16T14:30:47.263Z,99909.53
2022-09-16T14:33:56.595Z,99908.72
2022-09-16T14:37:01.514Z,99899.13
2022-09-16T14:40:08.008Z,99897.47
2022-09-16T14:43:17.715Z,99899.44
2022-09-16T14:46:20.712Z,99892.31
2022-09-16T14:49:25.088Z,99901.47
2022-09-16T14:52:30.961Z,99895.78
2022-09-16T14:55:37.642Z,99893.69
2022-09-16T14:58:40.342Z,99905.81
2022-09-16T15:01:43.475Z,99904.03
2022-09-16T15:04:49.013Z,99903.50
2022-09-16T15:08:13.070Z,99900.44
2022-09-16T15:12:46.621Z,99894.03
2022-09-16T15:14:44.090Z,99894.38
2022-09-16T15:17:57.857Z,99886.69
2022-09-16T15:21:09.108Z,99888.03
2022-09-16T15:24:20.913Z,99896.19
2022-09-16T15:27:28.470Z,99887.19
2022-09-16T15:30:31.825Z,99891.13
2022-09-16T15:33:36.264Z,99893.88
2022-09-16T15:36:41.042Z,99887.66
2022-09-16T15:39:47.122Z,99889.66
2022-09-16T15:43:01.599Z,99894.72
2022-09-16T15:46:08.327Z,99896.34
2022-09-16T15:49:14.660Z,99885.56
2022-09-16T15:52:17.972Z,99884.25
2022-09-16T15:55:38.065Z,99878.19
2022-09-16T15:58:44.848Z,99878.16
2022-09-16T16:01:53.478Z,99877.59
2022-09-16T16:05:07.745Z,99877.56
2022-09-16T16:08:10.323Z,99874.34
2022-09-16T16:11:16.329Z,99873.31
2022-09-16T16:14:22.440Z,99861.38
2022-09-16T16:17:25.150Z,99878.75
2022-09-16T16:20:28.411Z,99885.09
2022-09-16T16:23:31.115Z,99873.03
2022-09-16T16:26:35.741Z,99874.34
2022-09-16T16:29:39.191Z,99876.22
2022-09-16T16:32:42.063Z,99870.94
2022-09-16T16:35:44.662Z,99868.13
2022-09-16T16:38:48.362Z,99870.44
2022-09-16T16:41:54.133Z,99865.00
2022-09-16T16:44:57.084Z,99864.53
2022-09-16T16:48:00.910Z,99863.53
2022-09-16T16:51:05.465Z,99865.22
2022-09-16T16:54:08.247Z,99872.44
2022-09-16T16:57:12.376Z,99869.81
2022-09-16T17:00:16.280Z,99871.53
2022-09-16T17:03:20.365Z,99885.50
2022-09-16T17:06:23.026Z,99879.47
2022-09-16T17:09:25.919Z,99876.03
2022-09-16T17:12:29.914Z,99876.53
2022-09-16T17:15:32.640Z,99870.25
2022-09-16T17:18:36.547Z,99870.38
2022-09-16T17:21:40.424Z,99881.94
2022-09-16T17:24:43.340Z,99877.63
2022-09-16T17:27:47.543Z,99874.00
2022-09-16T17:30:50.202Z,99876.56
2022-09-16T17:33:55.122Z,99872.38
2022-09-16T17:36:58.194Z,99876.56
2022-09-16T17:40:01.064Z,99869.31
2022-09-16T17:43:05.233Z,99883.34
2022-09-16T17:46:12.859Z,99870.06
2022-09-16T17:49:17.311Z,99881.59
2022-09-16T17:52:20.141Z,99875.25
2022-09-16T17:55:23.025Z,99884.47
2022-09-16T17:58:26.955Z,99874.25
2022-09-16T18:01:30.709Z,99879.31
2022-09-16T18:04:33.347Z,99875.56
2022-09-16T18:07:36.014Z,99877.22
2022-09-16T18:10:38.761Z,99875.88
2022-09-16T18:13:43.301Z,99867.88
2022-09-16T18:16:46.998Z,99875.75
2022-09-16T18:19:49.809Z,99878.75
2022-09-16T18:22:52.599Z,99876.88
2022-09-16T18:25:55.952Z,99873.50
2022-09-16T18:29:11.299Z,99879.25
2022-09-16T18:32:14.561Z,99875.56
2022-09-16T18:35:17.397Z,99879.97
2022-09-16T18:38:20.022Z,99877.81
2022-09-16T18:41:24.479Z,99883.34
2022-09-16T18:44:28.873Z,99880.56
2022-09-16T18:47:31.483Z,99877.50
2022-09-16T18:50:35.749Z,99886.91
2022-09-16T18:53:38.453Z,99889.06
2022-09-16T18:56:42.035Z,99888.13
2022-09-16T18:59:46.252Z,99897.44
2022-09-16T19:02:51.974Z,99901.22
2022-09-16T19:05:57.984Z,99907.63
2022-09-16T19:09:01.383Z,99903.69
2022-09-16T19:12:04.963Z,99901.19
2022-09-16T19:15:11.148Z,99892.47
2022-09-16T19:18:14.356Z,99894.84
2022-09-16T19:21:18.930Z,99902.38
2022-09-16T19:24:23.251Z,99897.94
2022-09-16T19:27:25.812Z,99902.69
2022-09-16T19:30:29.723Z,99907.44
2022-09-16T19:33:32.873Z,99897.97
2022-09-16T19:36:36.726Z,99901.72
2022-09-16T19:39:39.539Z,99888.75
2022-09-16T19:42:42.293Z,99880.94
2022-09-16T19:45:46.267Z,99870.34
2022-09-16T19:48:50.127Z,99861.50
2022-09-16T19:51:53.912Z,99855.00
2022-09-16T19:54:56.510Z,99851.88
2022-09-16T19:57:59.227Z,99844.53
2022-09-16T20:01:05.404Z,99837.00
2022-09-16T20:04:11.717Z,99832.97
2022-09-16T20:07:17.274Z,99817.94
2022-09-16T20:10:20.058Z,99814.13
2022-09-16T20:13:22.652Z,99819.56
2022-09-16T20:16:28.852Z,99823.25
2022-09-16T20:19:32.111Z,99807.28
2022-09-16T20:22:35.333Z,99809.09
2022-09-16T20:25:38.653Z,99810.63
2022-09-16T20:28:42.866Z,99810.28
2022-09-16T20:31:48.043Z,99805.81
2022-09-16T20:34:50.698Z,99792.94
2022-09-16T20:37:53.415Z,99795.88
2022-09-16T20:40:56.006Z,99792.25
2022-09-16T20:43:59.457Z,99796.16
2022-09-16T20:47:03.595Z,99794.41
2022-09-16T20:50:09.204Z,99801.00
2022-09-16T20:53:12.573Z,99796.31
2022-09-16T20:56:17.485Z,99793.22
2022-09-16T20:59:21.457Z,99781.34
2022-09-16T21:02:25.420Z,99787.13
2022-09-16T21:05:28.153Z,99784.44
2022-09-16T21:08:33.879Z,99780.97
2022-09-16T21:11:38.035Z,99787.25
2022-09-16T21:14:40.836Z,99788.41
2022-09-16T21:17:44.899Z,99791.75
2022-09-16T21:20:48.229Z,99798.09
2022-09-16T21:23:51.671Z,99789.63
2022-09-16T21:26:54.631Z,99794.81
2022-09-16T21:29:57.619Z,99796.00
2022-09-16T21:33:01.766Z,99794.25
2022-09-16T21:36:05.197Z,99803.44
2022-09-16T21:39:08.065Z,99808.34
2022-09-16T21:42:10.777Z,99808.78
2022-09-16T21:45:13.565Z,99801.66
2022-09-16T21:48:19.401Z,99805.91
2022-09-16T21:51:22.201Z,99817.63
2022-09-16T21:54:25.969Z,99801.53
2022-09-16T21:57:29.944Z,99813.25
2022-09-16T22:00:32.657Z,99815.19
2022-09-16T22:03:37.589Z,99818.66
2022-09-16T22:06:40.752Z,99827.50
2022-09-16T22:09:43.428Z,99834.06
2022-09-16T22:12:46.210Z,99834.88
2022-09-16T22:15:51.221Z,99837.44
2022-09-16T22:18:56.187Z,99843.19
2022-09-16T22:21:59.124Z,99843.94
2022-09-16T22:25:01.677Z,99846.09
2022-09-16T22:28:04.852Z,99847.72
2022-09-16T22:31:08.994Z,99855.38
2022-09-16T22:34:13.158Z,99856.88
2022-09-16T22:37:15.860Z,99861.53
2022-09-16T22:40:18.966Z,99858.91
2022-09-16T22:43:21.651Z,99861.00
2022-09-16T22:46:26.238Z,99859.31
2022-09-16T22:49:30.830Z,99857.53
2022-09-16T22:52:33.693Z,99857.44
2022-09-16T22:55:36.458Z,99858.19
2022-09-16T22:58:39.633Z,99862.66
2022-09-16T23:01:42.396Z,99865.69
2022-09-16T23:04:46.349Z,99861.88
2022-09-16T23:07:50.316Z,99870.56
2022-09-16T23:10:54.062Z,99864.72
2022-09-16T23:13:58.257Z,99865.88
2022-09-16T23:17:00.950Z,99867.94
2022-09-16T23:20:05.809Z,99865.03
2022-09-16T23:23:08.360Z,99864.00
2022-09-16T23:26:13.593Z,99870.41
2022-09-16T23:29:18.414Z,99865.50
2022-09-16T23:32:21.114Z,99869.06
2022-09-16T23:35:25.213Z,99875.59
2022-09-16T23:38:28.049Z,99873.97
2022-09-16T23:41:31.993Z,99870.84
2022-09-16T23:44:34.894Z,99874.91
2022-09-16T23:47:37.581Z,99878.50
2022-09-16T23:50:41.963Z,99868.19
2022-09-16T23:53:45.381Z,99873.16
2022-09-16T23:56:50.487Z,99885.59
2022-09-16T23:59:53.102Z,99878.03
